Terminal Aerodrome Forecast
Issued by NWS Pueblo, CO

Home | Current Version | Previous Version | Text Only | Print | Product List | Glossary On
Versions: 1 2 3 4 5 6 7 8 9 10 11 12 13 14 15 16 17 18 19 20 21 22 23 24 25 26 27 28 29 30 31 32 33 34
000
FTUS45 KPUB 011120
TAFCOS
TAF
KCOS 011120Z 0112/0212 VRB06KT P6SM FEW100 SCT120
     FM011700 17014KT P6SM SCT070 BKN120
     FM012300 36012KT P6SM VCTS SCT040CB BKN070
     FM020200 33015G25KT P6SM VCSH BKN040 OVC070
     FM020800 33010KT P6SM SCT040 BKN070=

USA.gov is the U.S. government's official web portal to all federal, state and local government web resources and services.